createdAt,value
2019-03-11T00:00:37.188Z,2.94
2019-03-11T00:05:33.102Z,2.94
2019-03-11T00:10:29.103Z,2.86
2019-03-11T00:15:25.131Z,2.95
2019-03-11T00:20:21.033Z,2.92
2019-03-11T00:25:17.036Z,2.94
2019-03-11T00:30:12.948Z,2.91
2019-03-11T00:35:08.880Z,3.01
2019-03-11T00:40:08.243Z,2.99
2019-03-11T00:45:07.787Z,3.04
2019-03-11T00:50:06.299Z,3.12
2019-03-11T00:55:03.713Z,3.17
2019-03-11T00:59:59.622Z,3.20
2019-03-11T01:04:55.530Z,3.31
2019-03-11T01:09:51.467Z,3.42
2019-03-11T01:14:47.392Z,3.50
2019-03-11T01:19:43.299Z,3.67
2019-03-11T01:24:39.205Z,3.76
2019-03-11T01:29:35.110Z,3.88
2019-03-11T01:34:31.051Z,3.89
2019-03-11T01:39:26.953Z,3.93
2019-03-11T01:44:22.867Z,3.93
2019-03-11T01:49:18.772Z,3.75
2019-03-11T01:54:14.840Z,3.51
2019-03-11T01:59:10.907Z,2.99
2019-03-11T02:04:06.818Z,2.54
2019-03-11T02:09:04.041Z,2.60
2019-03-11T02:13:59.949Z,2.67
2019-03-11T02:18:55.912Z,2.78
2019-03-11T02:23:51.824Z,2.81
2019-03-11T02:28:47.727Z,2.84
2019-03-11T02:33:43.619Z,2.83
2019-03-11T02:38:39.506Z,2.95
2019-03-11T02:43:35.417Z,2.92
2019-03-11T02:48:31.440Z,3.10
2019-03-11T02:53:27.348Z,3.04
2019-03-11T02:58:23.255Z,2.82
2019-03-11T03:03:39.314Z,2.85
2019-03-11T03:08:35.212Z,2.71
2019-03-11T03:13:31.121Z,2.59
2019-03-11T03:18:27.054Z,2.59
2019-03-11T03:23:22.941Z,2.65
2019-03-11T03:28:18.856Z,2.62
2019-03-11T03:33:14.837Z,2.68
2019-03-11T03:38:10.789Z,2.64
2019-03-11T03:43:06.973Z,2.51
2019-03-11T03:48:03.120Z,2.65
2019-03-11T03:52:59.056Z,2.67
2019-03-11T03:57:55.639Z,2.74
2019-03-11T04:02:51.606Z,2.79
2019-03-11T04:07:47.626Z,2.85
2019-03-11T04:12:43.732Z,2.94
2019-03-11T04:17:39.650Z,2.93
2019-03-11T04:22:35.560Z,2.88
2019-03-11T04:27:32.194Z,2.85
2019-03-11T04:32:28.157Z,2.81
2019-03-11T04:37:24.058Z,2.79
2019-03-11T04:42:19.988Z,2.73
2019-03-11T04:47:15.976Z,2.66
2019-03-11T04:52:11.883Z,2.62
2019-03-11T04:57:08.889Z,2.62
2019-03-11T05:02:04.894Z,2.59
2019-03-11T05:07:00.802Z,2.63
2019-03-11T05:11:56.732Z,2.61
2019-03-11T05:16:52.636Z,2.60
2019-03-11T05:21:48.542Z,2.60
2019-03-11T05:26:46.948Z,2.63
2019-03-11T05:31:42.957Z,2.65
2019-03-11T05:36:38.862Z,2.65
2019-03-11T05:41:34.822Z,2.66
2019-03-11T05:46:31.162Z,2.64
2019-03-11T05:51:31.505Z,2.62
2019-03-11T05:56:25.075Z,2.66
2019-03-11T06:01:21.011Z,2.63
2019-03-11T06:06:16.892Z,2.62
2019-03-11T06:11:12.811Z,2.69
2019-03-11T06:16:08.749Z,2.72
2019-03-11T06:21:15.783Z,2.85
2019-03-11T06:26:11.789Z,2.97
2019-03-11T06:31:07.696Z,3.01
2019-03-11T06:36:03.765Z,2.93
2019-03-11T06:40:59.711Z,2.69
2019-03-11T06:45:55.616Z,2.72
2019-03-11T06:50:51.524Z,2.87
2019-03-11T06:55:47.437Z,3.10
2019-03-11T07:00:43.350Z,3.03
2019-03-11T07:05:39.267Z,2.97
2019-03-11T07:10:35.188Z,2.98
2019-03-11T07:15:31.086Z,3.02
2019-03-11T07:20:27.070Z,3.13
2019-03-11T07:25:23.037Z,3.16
2019-03-11T07:30:19.419Z,3.21
2019-03-11T07:35:15.434Z,3.24
2019-03-11T07:40:12.852Z,3.30
2019-03-11T07:45:10.556Z,3.47
2019-03-11T07:50:08.068Z,3.32
2019-03-11T07:55:09.636Z,3.10
2019-03-11T08:00:14.146Z,2.91
2019-03-11T08:05:10.167Z,2.75
2019-03-11T08:10:09.684Z,2.73
2019-03-11T08:15:08.996Z,2.84
2019-03-11T08:20:07.629Z,2.84
2019-03-11T08:25:05.732Z,2.29
2019-03-11T08:30:03.352Z,1.99
2019-03-11T08:34:59.253Z,1.93
2019-03-11T08:39:55.172Z,2.03
2019-03-11T08:44:51.057Z,2.16
2019-03-11T08:49:47.008Z,2.26
2019-03-11T08:54:42.909Z,2.37
2019-03-11T08:59:38.812Z,2.43
2019-03-11T09:04:34.816Z,2.43
2019-03-11T09:09:31.866Z,2.56
2019-03-11T09:14:27.940Z,2.74
2019-03-11T09:19:23.946Z,2.69
2019-03-11T09:24:19.855Z,2.63
2019-03-11T09:29:15.770Z,2.73
2019-03-11T09:34:11.685Z,2.76
2019-03-11T09:39:09.305Z,2.82
2019-03-11T09:44:05.313Z,2.63
2019-03-11T09:49:01.270Z,2.82
2019-03-11T09:53:57.176Z,2.73
2019-03-11T09:58:53.089Z,2.55
2019-03-11T10:03:49.001Z,2.12
2019-03-11T10:08:44.931Z,1.99
2019-03-11T10:13:41.698Z,2.21
2019-03-11T10:18:37.611Z,2.34
2019-03-11T10:23:33.517Z,2.26
2019-03-11T10:28:29.432Z,2.21
2019-03-11T10:33:25.339Z,2.28
2019-03-11T10:38:21.256Z,2.42
2019-03-11T10:43:17.266Z,2.54
2019-03-11T10:48:13.178Z,2.54
2019-03-11T10:53:09.093Z,2.72
2019-03-11T10:58:05.721Z,3.01
2019-03-11T11:03:01.677Z,3.25
2019-03-11T11:07:57.600Z,3.47
2019-03-11T11:12:53.500Z,3.87
2019-03-11T11:17:49.509Z,4.00
2019-03-11T11:22:45.505Z,4.13
2019-03-11T11:27:42.113Z,4.51
2019-03-11T11:32:37.980Z,4.50
2019-03-11T11:37:33.984Z,4.75
2019-03-11T11:42:29.924Z,4.74
2019-03-11T11:47:25.829Z,4.73
2019-03-11T11:52:21.801Z,4.55
2019-03-11T11:57:19.025Z,4.57
2019-03-11T12:02:15.108Z,4.53
2019-03-11T12:07:11.026Z,4.52
2019-03-11T12:12:06.978Z,4.46
2019-03-11T12:17:03.004Z,4.61
2019-03-11T12:21:58.909Z,4.69
2019-03-11T12:32:11.369Z,4.73
2019-03-11T12:37:07.279Z,4.82
2019-03-11T12:42:03.307Z,5.19
2019-03-11T12:46:59.217Z,5.54
2019-03-11T12:51:55.135Z,5.62
2019-03-11T12:56:51.740Z,5.59
2019-03-11T13:01:47.746Z,5.60
2019-03-11T13:06:43.630Z,5.52
2019-03-11T13:11:39.641Z,5.65
2019-03-11T13:16:35.544Z,5.65
2019-03-11T13:21:31.658Z,5.86
2019-03-11T13:26:27.618Z,5.84
2019-03-11T13:31:23.570Z,5.71
2019-03-11T13:36:20.614Z,5.28
2019-03-11T13:41:16.627Z,4.96
2019-03-11T13:46:12.577Z,5.24
2019-03-11T13:51:08.548Z,5.43
2019-03-11T13:56:04.604Z,5.42
2019-03-11T14:01:00.539Z,5.58
2019-03-11T14:05:56.412Z,5.81
2019-03-11T14:10:52.363Z,5.56
2019-03-11T14:15:48.266Z,5.55
2019-03-11T14:20:44.148Z,5.54
2019-03-11T14:25:40.236Z,5.44
2019-03-11T14:30:36.244Z,5.53
2019-03-11T14:35:32.158Z,5.65
2019-03-11T14:40:28.090Z,5.58
2019-03-11T14:45:24.048Z,5.45
2019-03-11T14:50:19.959Z,5.32
2019-03-11T14:55:15.869Z,5.31
2019-03-11T15:00:18.357Z,5.25
2019-03-11T15:05:16.905Z,5.07
2019-03-11T15:10:15.552Z,4.67
2019-03-11T15:15:13.968Z,4.64
2019-03-11T15:20:10.378Z,4.84
2019-03-11T15:25:08.387Z,4.99
2019-03-11T15:30:08.132Z,4.98
2019-03-11T15:35:06.162Z,5.05
2019-03-11T15:40:03.459Z,5.09
2019-03-11T15:45:01.974Z,5.11
2019-03-11T15:49:57.878Z,5.12
2019-03-11T15:54:53.824Z,5.16
2019-03-11T15:59:49.752Z,5.15
2019-03-11T16:04:45.658Z,5.05
2019-03-11T16:09:41.576Z,4.94
2019-03-11T16:14:37.480Z,4.72
2019-03-11T16:19:33.421Z,4.65
2019-03-11T16:24:29.422Z,4.64
2019-03-11T16:29:25.362Z,4.58
2019-03-11T16:34:21.371Z,4.49
2019-03-11T16:39:17.306Z,4.44
2019-03-11T16:44:13.268Z,4.42
2019-03-11T16:49:09.336Z,4.26
2019-03-11T16:54:05.349Z,4.18
2019-03-11T16:59:01.607Z,4.18
2019-03-11T17:03:57.735Z,4.26
2019-03-11T17:08:54.373Z,4.25
2019-03-11T17:13:52.534Z,4.28
2019-03-11T17:18:48.588Z,4.32
2019-03-11T17:23:44.543Z,4.43
2019-03-11T17:28:41.437Z,4.54
2019-03-11T17:33:37.449Z,4.68
2019-03-11T17:38:33.501Z,4.71
2019-03-11T17:43:29.577Z,4.78
2019-03-11T17:48:25.469Z,4.83
2019-03-11T17:53:21.400Z,4.81
2019-03-11T17:58:18.843Z,4.79
2019-03-11T18:03:14.917Z,4.80
2019-03-11T18:08:10.925Z,4.80
2019-03-11T18:13:06.877Z,4.85
2019-03-11T18:18:02.904Z,4.94
2019-03-11T18:22:58.809Z,5.02
2019-03-11T18:27:59.610Z,5.07
2019-03-11T18:32:57.137Z,5.18
2019-03-11T18:38:03.550Z,5.20
2019-03-11T18:42:50.971Z,5.30
2019-03-11T18:47:46.888Z,5.28
2019-03-11T18:52:52.904Z,5.32
2019-03-11T18:57:48.916Z,5.31
2019-03-11T19:02:46.134Z,5.32
2019-03-11T19:07:44.713Z,5.31
2019-03-11T19:12:40.836Z,5.30
2019-03-11T19:17:36.963Z,5.26
2019-03-11T19:22:33.033Z,5.27
2019-03-11T19:27:28.950Z,5.27
2019-03-11T19:32:25.015Z,5.27
2019-03-11T19:37:21.115Z,5.31
2019-03-11T19:42:17.184Z,5.30
2019-03-11T19:47:13.191Z,5.29
2019-03-11T19:52:09.255Z,5.24
2019-03-11T19:57:05.185Z,5.21
2019-03-11T20:02:01.225Z,5.21
2019-03-11T20:06:57.210Z,5.23
2019-03-11T20:11:54.170Z,5.20
2019-03-11T20:16:50.472Z,5.19
2019-03-11T20:21:46.570Z,5.19
2019-03-11T20:26:42.497Z,5.18
2019-03-11T20:31:38.514Z,5.16
2019-03-11T20:36:34.528Z,5.13
2019-03-11T20:41:30.564Z,5.09
2019-03-11T20:46:26.589Z,5.04
2019-03-11T20:51:22.579Z,5.02
2019-03-11T20:56:18.690Z,5.00
2019-03-11T21:01:14.727Z,5.00
2019-03-11T21:06:10.744Z,5.03
2019-03-11T21:11:06.756Z,5.06
2019-03-11T21:16:05.838Z,5.08
2019-03-11T21:21:05.227Z,5.06
2019-03-11T21:25:59.967Z,5.04
2019-03-11T21:30:57.553Z,5.06
2019-03-11T21:35:53.549Z,5.10
2019-03-11T21:40:49.581Z,5.08
2019-03-11T21:45:45.615Z,5.16
2019-03-11T21:50:41.769Z,5.11
2019-03-11T21:55:37.736Z,5.05
2019-03-11T22:00:35.084Z,4.98
2019-03-11T22:05:31.442Z,4.93
2019-03-11T22:10:27.390Z,4.97
2019-03-11T22:15:24.597Z,4.96
2019-03-11T22:20:20.888Z,4.95
2019-03-11T22:25:17.803Z,4.92
2019-03-11T22:30:17.597Z,4.95
2019-03-11T22:35:13.567Z,4.89
2019-03-11T22:40:11.659Z,4.92
2019-03-11T22:45:10.070Z,4.92
2019-03-11T22:50:08.187Z,5.00
2019-03-11T22:55:06.559Z,5.00
2019-03-11T23:00:18.757Z,4.97
2019-03-11T23:05:14.825Z,4.96
2019-03-11T23:10:10.862Z,4.95
2019-03-11T23:15:07.612Z,4.93
2019-03-11T23:20:05.406Z,5.02
2019-03-11T23:25:01.793Z,4.90
2019-03-11T23:29:57.703Z,4.84
2019-03-11T23:34:53.600Z,4.81
2019-03-11T23:39:49.503Z,4.79
2019-03-11T23:44:45.416Z,4.80
2019-03-11T23:49:41.327Z,4.82
2019-03-11T23:54:37.238Z,4.82
2019-03-11T23:59:33.139Z,4.83
